Machynlleth, United Kingdom
Current Conditions -  °F | °C
As of 3:50 AM on Thursday 27 Nov 2014 (Local Time) from EGOS Reporting Station
Drizzle Drizzle  
Wind Chill: 45°   Ceiling: 100
Heat Index: 45°   Visibility: 0.56mi
Dew Point: 43°   Wind: 1mph
Humidity: 93%   Direction: 360°N
Pressure: 29.65"   Gusts: NA
Location:  52.59°N, 3.85°W
Report Text: EGOS 270350Z AUTO 36001KT 0900 -DZ BKN001/// 07/06 Q1004
Loading
Personal Weather Stations






























Interactive Weather Map New forecast layout! Learn more

10-Day Weather Forecast

Advertisements
Track Severe Weather on mobile